Flight Track Log - Related Links

Times and Time Zones

All times are in EDT time to prevent confusion due to time zone crossing. See the CHB6237 flight status page for this flight to view local times or setup timezone preferences in your user account.

Time Position Orientation Groundspeed Altitude Reporting Facility
EDT Latitude Longitude Course Direction KTS MPH feet Rate Location/Type
Mon 03:17:00 AM 30.2558 107.1682 40° Northeast  Level Estimated
Mon 03:18:00 AM 30.3323 107.2440 41° Northeast  Level Estimated
Mon 03:19:00 AM 30.4087 107.3198 41° Northeast  Level Estimated
Mon 03:20:00 AM 30.4851 107.3959 41° Northeast  Level Estimated
Mon 03:21:00 AM 30.5614 107.4720 41° Northeast  Level Estimated
Mon 03:22:00 AM 30.6377 107.5482 41° Northeast  Level Estimated
Mon 03:23:00 AM 30.7140 107.6246 41° Northeast  Level Estimated
Mon 03:24:00 AM 30.7902 107.7011 41° Northeast  Level Estimated
Mon 03:25:00 AM 30.8664 107.7777 41° Northeast  Level Estimated
Mon 03:26:00 AM 30.9425 107.8545 41° Northeast  Level Estimated
Mon 03:27:00 AM 31.0185 107.9313 41° Northeast  Level Estimated
Mon 03:28:00 AM 31.0945 108.0083 41° Northeast  Level Estimated
Mon 03:29:00 AM 31.1705 108.0854 41° Northeast  Level Estimated
Mon 03:30:00 AM 31.2465 108.1627 41° Northeast  Level Estimated
Mon 03:31:00 AM 31.3223 108.2400 41° Northeast  Level Estimated
Mon 03:32:00 AM 31.3982 108.3175 41° Northeast  Level Estimated
Mon 03:33:00 AM 31.4739 108.3951 41° Northeast  Level Estimated
Mon 03:34:00 AM 31.5497 108.4728 41° Northeast  Level Estimated
Mon 03:35:00 AM 31.6254 108.5507 41° Northeast  Level Estimated
Mon 03:36:00 AM 31.7010 108.6287 41° Northeast  Level Estimated
Mon 03:37:00 AM 31.7766 108.7068 41° Northeast  Level Estimated
Mon 03:38:00 AM 31.8522 108.7850 41° Northeast  Level Estimated
Mon 03:39:00 AM 31.9277 108.8634 41° Northeast  Level Estimated
Mon 03:40:00 AM 32.0032 108.9419 41° Northeast  Level Estimated
Mon 03:41:00 AM 32.0786 109.0205 41° Northeast  Level Estimated
Mon 03:42:00 AM 32.1539 109.0993 41° Northeast  Level Estimated
Mon 03:43:00 AM 32.2292 109.1781 42° Northeast  Level Estimated
Mon 03:44:00 AM 32.3045 109.2571 42° Northeast  Level Estimated
Mon 03:45:00 AM 32.3797 109.3363 42° Northeast  Level Estimated
Mon 03:46:00 AM 32.4549 109.4156 42° Northeast  Level Estimated
Mon 03:47:00 AM 32.5300 109.4950 42° Northeast  Level Estimated
Mon 03:48:00 AM 32.6050 109.5745 42° Northeast  Level Estimated
Mon 03:49:00 AM 32.6800 109.6542 42° Northeast  Level Estimated
Mon 03:50:00 AM 32.7550 109.7340 42° Northeast  Level Estimated
Mon 03:51:00 AM 32.8299 109.8140 42° Northeast  Level Estimated
Mon 03:52:00 AM 32.9048 109.8940 42° Northeast  Level Estimated
Mon 03:53:00 AM 32.9796 109.9743 42° Northeast  Level Estimated
Mon 03:54:00 AM 33.0544 110.0546 42° Northeast  Level Estimated
Mon 03:55:00 AM 33.1291 110.1351 42° Northeast  Level Estimated
Mon 03:56:00 AM 33.2037 110.2157 42° Northeast  Level Estimated
Mon 03:57:00 AM 33.2783 110.2965 42° Northeast  Level Estimated
Mon 03:58:00 AM 33.3529 110.3774 42° Northeast  Level Estimated
Mon 03:59:00 AM 33.4274 110.4584 42° Northeast  Level Estimated
Mon 04:00:00 AM 33.5018 110.5396 42° Northeast  Level Estimated
Mon 04:01:00 AM 33.5762 110.6209 42° Northeast  Level Estimated
Mon 04:02:00 AM 33.6505 110.7024 42° Northeast  Level Estimated
Mon 04:03:00 AM 33.7248 110.7840 42° Northeast  Level Estimated
Mon 04:04:00 AM 33.7990 110.8657 42° Northeast  Level Estimated
Mon 04:05:00 AM 33.8732 110.9476 42° Northeast  Level Estimated
Mon 04:06:00 AM 33.9473 111.0296 43° Northeast  Level Estimated
Mon 04:07:00 AM 34.0214 111.1118 43° Northeast  Level Estimated
Mon 04:08:00 AM 34.0954 111.1941 43° Northeast  Level Estimated
Mon 04:09:00 AM 34.1694 111.2766 43° Northeast  Level Estimated
Mon 04:10:00 AM 34.2433 111.3592 43° Northeast  Level Estimated
Mon 04:11:00 AM 34.3172 111.4419 43° Northeast  Level Estimated
Mon 04:12:00 AM 34.3909 111.5248 43° Northeast  Level Estimated
Mon 04:13:00 AM 34.4647 111.6078 43° Northeast  Level Estimated
Mon 04:14:00 AM 34.5383 111.6910 43° Northeast  Level Estimated
Mon 04:15:00 AM 34.6120 111.7744 43° Northeast  Level Estimated
Mon 04:16:00 AM 34.6855 111.8578 43° Northeast  Level Estimated
Mon 04:17:00 AM 34.7590 111.9415 43° Northeast  Level Estimated
Mon 04:18:00 AM 34.8325 112.0252 43° Northeast  Level Estimated
Mon 04:19:00 AM 34.9059 112.1092 43° Northeast  Level Estimated
Mon 04:20:00 AM 34.9792 112.1932 43° Northeast  Level Estimated
Mon 04:21:00 AM 35.0525 112.2775 43° Northeast  Level Estimated
Mon 04:22:00 AM 35.1257 112.3618 43° Northeast  Level Estimated
Mon 04:23:00 AM 35.1989 112.4464 43° Northeast  Level Estimated
Mon 04:24:00 AM 35.2720 112.5311 43° Northeast  Level Estimated
Mon 04:25:00 AM 35.3451 112.6159 43° Northeast  Level Estimated
Mon 04:26:00 AM 35.4180 112.7009 43° Northeast  Level Estimated
Mon 04:27:00 AM 35.4910 112.7860 44° Northeast  Level Estimated
Mon 04:28:00 AM 35.5638 112.8713 44° Northeast  Level Estimated
Mon 04:29:00 AM 35.6366 112.9568 44° Northeast  Level Estimated
Mon 04:30:00 AM 35.7094 113.0424 44° Northeast  Level Estimated
Mon 04:31:00 AM 35.7821 113.1281 44° Northeast  Level Estimated
Mon 04:32:00 AM 35.8547 113.2141 44° Northeast  Level Estimated
Mon 04:33:00 AM 35.9272 113.3001 44° Northeast  Level Estimated
Mon 04:34:00 AM 35.9997 113.3864 44° Northeast  Level Estimated
Mon 04:35:00 AM 36.0722 113.4728 44° Northeast  Level Estimated
Mon 04:36:00 AM 36.1446 113.5593 44° Northeast  Level Estimated
Mon 04:37:00 AM 36.2169 113.6460 44° Northeast  Level Estimated
Mon 04:38:00 AM 36.2891 113.7329 44° Northeast  Level Estimated
Mon 04:39:00 AM 36.3613 113.8199 44° Northeast  Level Estimated
Mon 04:40:00 AM 36.4334 113.9072 44° Northeast  Level Estimated
Mon 04:41:00 AM 36.5055 113.9945 44° Northeast  Level Estimated
Mon 04:42:00 AM 36.5775 114.0820 44° Northeast  Level Estimated
Mon 04:43:00 AM 36.6494 114.1697 44° Northeast  Level Estimated
Mon 04:44:00 AM 36.7213 114.2576 44° Northeast  Level Estimated
Mon 04:45:00 AM 36.7931 114.3456 44° Northeast  Level Estimated
Mon 04:46:00 AM 36.8648 114.4338 45° Northeast  Level Estimated
Mon 04:47:00 AM 36.9365 114.5221 45° Northeast  Level Estimated
Mon 04:48:00 AM 37.0081 114.6106 45° Northeast  Level Estimated
Mon 04:49:00 AM 37.0797 114.6993 45° Northeast  Level Estimated
Mon 04:50:00 AM 37.1511 114.7881 45° Northeast  Level Estimated
Mon 04:51:00 AM 37.2225 114.8772 45° Northeast  Level Estimated
Mon 04:52:00 AM 37.2939 114.9663 45° Northeast  Level Estimated
Mon 04:53:00 AM 37.3652 115.0557 45° Northeast  Level Estimated
Mon 04:54:00 AM 37.4364 115.1452 45° Northeast  Level Estimated
Mon 04:55:00 AM 37.5075 115.2349 45° Northeast  Level Estimated
Mon 04:56:00 AM 37.5786 115.3248 45° Northeast  Level Estimated
Mon 04:57:00 AM 37.6496 115.4148 45° Northeast  Level Estimated
Mon 04:58:00 AM 37.7205 115.5050 45° Northeast  Level Estimated
Mon 04:59:00 AM 37.7914 115.5954 45° Northeast  Level Estimated
Mon 05:00:00 AM 37.8622 115.6859 45° Northeast  Level Estimated
Mon 05:01:00 AM 37.9329 115.7766 45° Northeast  Level Estimated
Mon 05:02:00 AM 38.0036 115.8676 45° Northeast  Level Estimated
Mon 05:03:00 AM 38.0742 115.9586 45° Northeast  Level Estimated
Mon 05:04:00 AM 38.1447 116.0499 45° Northeast  Level Estimated
Mon 05:05:00 AM 38.2151 116.1413 46° Northeast  Level Estimated
Mon 05:06:00 AM 38.2855 116.2329 46° Northeast  Level Estimated
Mon 05:07:00 AM 38.3558 116.3247 46° Northeast  Level Estimated
Mon 05:08:00 AM 38.4261 116.4167 46° Northeast  Level Estimated
Mon 05:09:00 AM 38.4962 116.5088 46° Northeast  Level Estimated
Mon 05:10:00 AM 38.5663 116.6011 46° Northeast  Level Estimated
Mon 05:11:00 AM 38.6363 116.6936 46° Northeast  Level Estimated
Mon 05:12:00 AM 38.7063 116.7863 46° Northeast  Level Estimated
Mon 05:13:00 AM 38.7761 116.8792 46° Northeast  Level Estimated
Mon 05:14:00 AM 38.8459 116.9722 46° Northeast  Level Estimated
Mon 05:15:00 AM 38.9157 117.0655 46° Northeast  Level Estimated
Mon 05:16:00 AM 38.9853 117.1589 46° Northeast  Level Estimated
Mon 05:17:00 AM 39.0549 117.2524 46° Northeast  Level Estimated
Mon 05:18:00 AM 39.1244 117.3462 46° Northeast  Level Estimated
Mon 05:19:00 AM 39.1244 117.3462 North  Level Estimated
Mon 05:20:00 AM 39.1244 117.3462 North  Level Estimated
Mon 05:21:00 AM 39.1244 117.3462 North  Level Estimated
Mon 05:22:00 AM 39.1244 117.3462 North  Level Estimated
Mon 05:23:00 AM 39.1244 117.3462 North  Level Estimated
Mon 05:24:00 AM 39.1244 117.3462 North  Level Estimated
Mon 05:25:00 AM 39.1244 117.3462 North  Level Estimated
Mon 05:26:00 AM 39.1244 117.3462 North  Level Estimated
Mon 05:27:00 AM 39.1244 117.3462 North  Level Estimated
Mon 05:28:00 AM 39.1244 117.3462 North  Level Estimated
Mon 05:29:00 AM 39.1244 117.3462 North  Level Estimated
Mon 05:30:00 AM 39.1244 117.3462 North  Level Estimated
Mon 05:31:00 AM 39.1244 117.3462 North  Level Estimated
Mon 05:32:00 AM 39.1244 117.3462 North  Level Estimated
Mon 05:33:00 AM 39.1244 117.3462 North  Level Estimated
Mon 05:34:00 AM 39.1244 117.3462 North  Level Estimated

Login

Don't have an account? Register now (free) for customized features, flight alerts, and more!